TAF Text Data
IDs:
Format:
Raw Decoded Include METAR

Data at: 1326 UTC 10 Jul 2020

KTUP 101129Z 1012/1112 00000KT P6SM SCT250
  FM101700 32005KT P6SM FEW030 FEW250
  FM110200 VRB03KT P6SM FEW250